createdAt,value
2023-05-21T00:00:11.711Z,20.93
2023-05-21T00:00:43.326Z,20.94
2023-05-21T00:01:14.916Z,20.95
2023-05-21T00:01:46.502Z,20.95
2023-05-21T00:02:18.185Z,20.94
2023-05-21T00:02:49.869Z,20.93
2023-05-21T00:03:21.568Z,20.93
2023-05-21T00:03:53.380Z,20.93
2023-05-21T00:04:25.195Z,20.94
2023-05-21T00:04:56.969Z,20.94
2023-05-21T00:05:28.548Z,20.94
2023-05-21T00:06:00.210Z,20.94
2023-05-21T00:06:31.993Z,20.95
2023-05-21T00:07:03.633Z,20.93
2023-05-21T00:07:35.270Z,20.94
2023-05-21T00:08:06.971Z,20.95
2023-05-21T00:08:38.559Z,20.96
2023-05-21T00:09:10.250Z,20.96
2023-05-21T00:09:41.798Z,20.96
2023-05-21T00:10:13.376Z,20.95
2023-05-21T00:10:44.902Z,20.95
2023-05-21T00:11:16.535Z,20.96
2023-05-21T00:11:48.090Z,20.95
2023-05-21T00:12:19.723Z,20.95
2023-05-21T00:12:51.345Z,20.95
2023-05-21T00:13:23.028Z,20.93
2023-05-21T00:13:54.666Z,20.94
2023-05-21T00:14:26.376Z,20.93
2023-05-21T00:14:58.463Z,20.92
2023-05-21T00:15:30.092Z,20.93
2023-05-21T00:16:01.822Z,20.92
2023-05-21T00:16:33.429Z,20.93
2023-05-21T00:17:05.040Z,20.93
2023-05-21T00:17:36.754Z,20.94
2023-05-21T00:18:08.485Z,20.94
2023-05-21T00:18:40.181Z,20.92
2023-05-21T00:19:11.846Z,20.92
2023-05-21T00:19:43.417Z,20.91
2023-05-21T00:20:14.972Z,20.93
2023-05-21T00:20:46.619Z,20.92
2023-05-21T00:21:18.220Z,20.92
2023-05-21T00:21:49.867Z,20.90
2023-05-21T00:22:21.552Z,20.91
2023-05-21T00:22:53.406Z,20.93
2023-05-21T00:23:25.137Z,20.91
2023-05-21T00:23:57.084Z,20.93
2023-05-21T00:24:28.776Z,20.92
2023-05-21T00:25:00.355Z,20.93
2023-05-21T00:25:32.076Z,20.92
2023-05-21T00:26:03.680Z,20.93
2023-05-21T00:26:35.286Z,20.92
2023-05-21T00:27:06.874Z,20.93
2023-05-21T00:27:38.982Z,20.92
2023-05-21T00:28:10.539Z,20.92
2023-05-21T00:28:42.224Z,20.93
2023-05-21T00:29:13.859Z,20.90
2023-05-21T00:29:45.561Z,20.88
2023-05-21T00:30:17.193Z,20.90
2023-05-21T00:30:48.806Z,20.90
2023-05-21T00:31:20.529Z,20.91
2023-05-21T00:31:52.148Z,20.91
2023-05-21T00:32:23.823Z,20.92
2023-05-21T00:32:55.404Z,20.91
2023-05-21T00:33:27.278Z,20.90
2023-05-21T00:33:58.896Z,20.90
2023-05-21T00:34:30.559Z,20.91
2023-05-21T00:35:02.307Z,20.91
2023-05-21T00:35:33.997Z,20.91
2023-05-21T00:36:05.829Z,20.91
2023-05-21T00:36:37.466Z,20.91
2023-05-21T00:37:09.064Z,20.91
2023-05-21T00:37:40.614Z,20.90
2023-05-21T00:38:12.192Z,20.90
2023-05-21T00:38:43.795Z,20.89
2023-05-21T00:39:15.460Z,20.89
2023-05-21T00:39:47.083Z,20.91
2023-05-21T00:40:18.773Z,20.90
2023-05-21T00:40:50.484Z,20.89
2023-05-21T00:41:22.211Z,20.90
2023-05-21T00:41:53.848Z,20.91
2023-05-21T00:42:25.482Z,20.89
2023-05-21T00:42:57.274Z,20.88
2023-05-21T00:43:31.356Z,20.89
2023-05-21T00:44:02.978Z,20.89
2023-05-21T00:44:34.604Z,20.88
2023-05-21T00:45:06.551Z,20.89
2023-05-21T00:45:38.643Z,20.90
2023-05-21T00:46:11.319Z,20.88
2023-05-21T00:46:42.925Z,20.88
2023-05-21T00:47:14.513Z,20.89
2023-05-21T00:47:46.258Z,20.91
2023-05-21T00:48:17.943Z,20.89
2023-05-21T00:48:49.563Z,20.90
2023-05-21T00:49:22.187Z,20.88
2023-05-21T00:49:54.116Z,20.89
2023-05-21T00:50:25.751Z,20.90
2023-05-21T00:50:57.365Z,20.88
2023-05-21T00:51:28.963Z,20.90
2023-05-21T00:52:00.617Z,20.90
2023-05-21T00:52:32.287Z,20.89
2023-05-21T00:53:03.943Z,20.89
2023-05-21T00:53:35.513Z,20.90
2023-05-21T00:54:07.074Z,20.90
2023-05-21T00:54:38.652Z,20.89
2023-05-21T00:55:10.228Z,20.88
2023-05-21T00:55:41.822Z,20.88
2023-05-21T00:56:13.330Z,20.88
2023-05-21T00:56:44.864Z,20.87
2023-05-21T00:57:17.245Z,20.88
2023-05-21T00:57:48.822Z,20.89
2023-05-21T00:58:20.424Z,20.89
2023-05-21T00:58:52.058Z,20.88
2023-05-21T00:59:23.772Z,20.89
2023-05-21T00:59:55.324Z,20.89
2023-05-21T01:00:26.899Z,20.89
2023-05-21T01:00:58.505Z,20.86
2023-05-21T01:01:30.128Z,20.89
2023-05-21T01:02:01.775Z,20.88
2023-05-21T01:02:33.731Z,20.88
2023-05-21T01:03:05.479Z,20.88
2023-05-21T01:03:37.269Z,20.86
2023-05-21T01:04:08.870Z,20.87
2023-05-21T01:04:40.818Z,20.88
2023-05-21T01:05:12.360Z,20.88
2023-05-21T01:05:44.007Z,20.88
2023-05-21T01:06:15.710Z,20.87
2023-05-21T01:06:47.357Z,20.88
2023-05-21T01:07:18.945Z,20.89
2023-05-21T01:07:50.467Z,20.88
2023-05-21T01:08:22.174Z,20.88
2023-05-21T01:08:53.901Z,20.87
2023-05-21T01:09:26.065Z,20.88
2023-05-21T01:09:57.594Z,20.88
2023-05-21T01:10:29.289Z,20.89
2023-05-21T01:11:01.387Z,20.88
2023-05-21T01:11:40.104Z,20.88
2023-05-21T01:12:11.736Z,20.90
2023-05-21T01:12:43.852Z,20.89
2023-05-21T01:13:15.451Z,20.87
2023-05-21T01:13:47.119Z,20.89
2023-05-21T01:14:18.736Z,20.88
2023-05-21T01:14:50.317Z,20.87
2023-05-21T01:15:21.970Z,20.89
2023-05-21T01:15:53.606Z,20.89
2023-05-21T01:16:25.287Z,20.88
2023-05-21T01:16:57.084Z,20.88
2023-05-21T01:17:28.846Z,20.89
2023-05-21T01:18:00.455Z,20.89
2023-05-21T01:18:32.604Z,20.89
2023-05-21T01:19:04.786Z,20.90
2023-05-21T01:19:36.550Z,20.89
2023-05-21T01:20:09.281Z,20.87
2023-05-21T01:20:41.035Z,20.86
2023-05-21T01:21:12.596Z,20.90
2023-05-21T01:21:49.617Z,20.90
2023-05-21T01:22:21.432Z,20.89
2023-05-21T01:22:56.408Z,20.88
2023-05-21T01:23:28.093Z,20.90
2023-05-21T01:23:59.738Z,20.89
2023-05-21T01:24:31.354Z,20.91
2023-05-21T01:25:03.402Z,20.93
2023-05-21T01:25:35.322Z,20.92
2023-05-21T01:26:07.084Z,20.93
2023-05-21T01:26:38.785Z,20.92
2023-05-21T01:27:10.467Z,20.91
2023-05-21T01:27:42.455Z,20.91
2023-05-21T01:28:14.165Z,20.89
2023-05-21T01:28:45.823Z,20.88
2023-05-21T01:29:17.413Z,20.89
2023-05-21T01:29:49.072Z,20.90
2023-05-21T01:30:20.974Z,20.88
2023-05-21T01:30:52.663Z,20.88
2023-05-21T01:31:28.278Z,20.88
2023-05-21T01:32:11.625Z,20.88
2023-05-21T01:32:50.381Z,20.87
2023-05-21T01:33:37.103Z,20.89
2023-05-21T01:34:09.328Z,20.87
2023-05-21T01:34:42.266Z,20.87
2023-05-21T01:35:17.485Z,20.88
2023-05-21T01:36:03.085Z,20.88
2023-05-21T01:36:35.022Z,20.88
2023-05-21T01:37:09.010Z,20.88
2023-05-21T01:37:45.248Z,20.89
2023-05-21T01:38:22.629Z,20.87
2023-05-21T01:39:06.661Z,20.87
2023-05-21T01:39:38.802Z,20.89
2023-05-21T01:40:10.335Z,20.88
2023-05-21T01:40:44.028Z,20.87
2023-05-21T01:41:16.792Z,20.85
2023-05-21T01:41:48.392Z,20.87
2023-05-21T01:42:20.136Z,20.85
2023-05-21T01:42:51.823Z,20.87
2023-05-21T01:43:23.406Z,20.87
2023-05-21T01:43:55.058Z,20.87
2023-05-21T01:44:26.680Z,20.87
2023-05-21T01:44:58.222Z,20.85
2023-05-21T01:45:29.863Z,20.85
2023-05-21T01:46:01.505Z,20.84
2023-05-21T01:46:33.596Z,20.83
2023-05-21T01:47:05.242Z,20.84
2023-05-21T01:47:37.025Z,20.86
2023-05-21T01:48:09.070Z,20.85
2023-05-21T01:48:40.692Z,20.86
2023-05-21T01:49:12.268Z,20.85
2023-05-21T01:49:43.831Z,20.85
2023-05-21T01:50:15.408Z,20.86
2023-05-21T01:50:47.078Z,20.86
2023-05-21T01:51:18.694Z,20.86
2023-05-21T01:51:50.270Z,20.84
2023-05-21T01:52:21.835Z,20.85
2023-05-21T01:52:54.033Z,20.85
2023-05-21T01:53:25.697Z,20.85
2023-05-21T01:53:57.280Z,20.85
2023-05-21T01:54:28.873Z,20.85
2023-05-21T01:55:00.544Z,20.84
2023-05-21T01:55:32.504Z,20.85
2023-05-21T01:56:04.429Z,20.85
2023-05-21T01:56:35.985Z,20.85
2023-05-21T01:57:07.641Z,20.85
2023-05-21T01:57:39.326Z,20.86
2023-05-21T01:58:10.867Z,20.85
2023-05-21T01:58:42.546Z,20.85
2023-05-21T01:59:14.227Z,20.86
2023-05-21T01:59:45.981Z,20.87
2023-05-21T02:00:17.574Z,20.84
2023-05-21T02:00:49.256Z,20.84
2023-05-21T02:01:20.873Z,20.83
2023-05-21T02:01:52.594Z,20.84
2023-05-21T02:02:24.238Z,20.83
2023-05-21T02:02:55.982Z,20.85
2023-05-21T02:03:28.196Z,20.85
2023-05-21T02:04:00.132Z,20.87
2023-05-21T02:04:32.348Z,20.84
2023-05-21T02:05:04.339Z,20.86
2023-05-21T02:05:36.367Z,20.85
2023-05-21T02:06:08.388Z,20.84
2023-05-21T02:06:40.118Z,20.87
2023-05-21T02:07:11.942Z,20.86
2023-05-21T02:07:44.409Z,20.85
2023-05-21T02:08:16.349Z,20.86
2023-05-21T02:08:48.054Z,20.84
2023-05-21T02:09:19.615Z,20.82
2023-05-21T02:09:51.153Z,20.82
2023-05-21T02:10:22.852Z,20.83
2023-05-21T02:10:54.469Z,20.83
2023-05-21T02:11:26.350Z,20.85
2023-05-21T02:11:58.005Z,20.84
2023-05-21T02:12:29.569Z,20.84
2023-05-21T02:13:01.287Z,20.83
2023-05-21T02:13:32.956Z,20.87
2023-05-21T02:14:04.607Z,20.82
2023-05-21T02:14:36.188Z,20.85
2023-05-21T02:15:07.907Z,20.85
2023-05-21T02:15:39.537Z,20.84
2023-05-21T02:16:11.777Z,20.84
2023-05-21T02:16:43.629Z,20.83
2023-05-21T02:17:15.226Z,20.84
2023-05-21T02:17:47.072Z,20.85
2023-05-21T02:18:18.812Z,20.84
2023-05-21T02:18:50.475Z,20.85
2023-05-21T02:19:22.193Z,20.84
2023-05-21T02:19:53.812Z,20.85
2023-05-21T02:20:25.402Z,20.85
2023-05-21T02:20:56.996Z,20.86
2023-05-21T02:21:28.624Z,20.88
2023-05-21T02:22:00.176Z,20.85
2023-05-21T02:22:31.790Z,20.84
2023-05-21T02:23:03.412Z,20.84
2023-05-21T02:23:35.332Z,20.84
2023-05-21T02:24:07.026Z,20.85
2023-05-21T02:24:38.650Z,20.86
2023-05-21T02:25:11.014Z,20.85
2023-05-21T02:25:42.622Z,20.85
2023-05-21T02:26:14.233Z,20.82
2023-05-21T02:26:45.829Z,20.82
2023-05-21T02:27:17.456Z,20.83
2023-05-21T02:27:49.070Z,20.84
2023-05-21T02:28:20.772Z,20.84
2023-05-21T02:28:52.415Z,20.83
2023-05-21T02:29:24.058Z,20.83
2023-05-21T02:29:55.626Z,20.82
2023-05-21T02:30:27.223Z,20.82
2023-05-21T02:30:58.710Z,20.84
2023-05-21T02:31:30.322Z,20.84
2023-05-21T02:32:01.873Z,20.83
2023-05-21T02:32:33.588Z,20.86
2023-05-21T02:33:05.407Z,20.85
2023-05-21T02:33:37.134Z,20.85
2023-05-21T02:34:08.709Z,20.84
2023-05-21T02:34:40.362Z,20.85
2023-05-21T02:35:12.405Z,20.87
2023-05-21T02:35:44.036Z,20.85
2023-05-21T02:36:15.689Z,20.83
2023-05-21T02:36:47.283Z,20.83
2023-05-21T02:37:19.563Z,20.84
2023-05-21T02:37:51.110Z,20.83
2023-05-21T02:38:22.710Z,20.84
2023-05-21T02:38:54.681Z,20.84
2023-05-21T02:39:26.323Z,20.85
2023-05-21T02:39:57.982Z,20.84
2023-05-21T02:40:29.601Z,20.84
2023-05-21T02:41:01.156Z,20.82
2023-05-21T02:41:32.708Z,20.83
2023-05-21T02:42:04.344Z,20.83
2023-05-21T02:42:36.436Z,20.83
2023-05-21T02:43:08.036Z,20.82
2023-05-21T02:43:39.756Z,20.82
2023-05-21T02:44:11.390Z,20.82
2023-05-21T02:44:43.046Z,20.82
2023-05-21T02:45:14.809Z,20.83
2023-05-21T02:45:46.475Z,20.84
2023-05-21T02:46:18.155Z,20.83
2023-05-21T02:46:49.906Z,20.83
2023-05-21T02:47:21.479Z,20.84
2023-05-21T02:47:53.006Z,20.84
2023-05-21T02:48:24.625Z,20.84
2023-05-21T02:48:56.206Z,20.84
2023-05-21T02:49:27.794Z,20.81
2023-05-21T02:50:00.218Z,20.82
2023-05-21T02:50:31.841Z,20.82
2023-05-21T02:51:03.486Z,20.80
2023-05-21T02:51:35.167Z,20.80
2023-05-21T02:52:06.830Z,20.79
2023-05-21T02:52:38.429Z,20.81
2023-05-21T02:53:10.012Z,20.83
2023-05-21T02:53:41.563Z,20.80
2023-05-21T02:54:13.138Z,20.81
2023-05-21T02:54:45.232Z,20.81
2023-05-21T02:55:16.813Z,20.81
2023-05-21T02:55:48.416Z,20.80
2023-05-21T02:56:20.098Z,20.81
2023-05-21T02:56:51.698Z,20.81
2023-05-21T02:57:23.304Z,20.82
2023-05-21T02:57:54.880Z,20.82
2023-05-21T02:58:26.469Z,20.81
2023-05-21T02:58:58.011Z,20.81
2023-05-21T02:59:29.567Z,20.80
2023-05-21T03:00:01.184Z,20.80
2023-05-21T03:00:32.802Z,20.79
2023-05-21T03:01:04.516Z,20.78
2023-05-21T03:01:36.368Z,20.78
2023-05-21T03:02:08.107Z,20.77
2023-05-21T03:02:40.258Z,20.79
2023-05-21T03:03:11.991Z,20.79
2023-05-21T03:03:43.614Z,20.78
2023-05-21T03:04:15.171Z,20.76
2023-05-21T03:04:46.821Z,20.77
2023-05-21T03:05:18.437Z,20.78
2023-05-21T03:05:50.088Z,20.78
2023-05-21T03:06:21.669Z,20.77
2023-05-21T03:06:53.275Z,20.78
2023-05-21T03:07:24.863Z,20.76
2023-05-21T03:07:56.460Z,20.75
2023-05-21T03:08:28.056Z,20.75
2023-05-21T03:08:59.588Z,20.76
2023-05-21T03:09:31.269Z,20.75
2023-05-21T03:10:02.926Z,20.75
2023-05-21T03:10:34.537Z,20.75
2023-05-21T03:11:06.075Z,20.76
2023-05-21T03:11:37.620Z,20.76
2023-05-21T03:12:09.505Z,20.78
2023-05-21T03:12:41.051Z,20.77
2023-05-21T03:13:12.677Z,20.76
2023-05-21T03:13:44.555Z,20.75
2023-05-21T03:14:16.218Z,20.75
2023-05-21T03:14:48.808Z,20.74
2023-05-21T03:15:20.762Z,20.74
2023-05-21T03:15:52.388Z,20.74
2023-05-21T03:16:24.003Z,20.74
2023-05-21T03:16:55.667Z,20.71
2023-05-21T03:17:27.332Z,20.72
2023-05-21T03:17:59.324Z,20.74
2023-05-21T03:18:30.938Z,20.74
2023-05-21T03:19:02.720Z,20.74
2023-05-21T03:19:34.520Z,20.75
2023-05-21T03:20:06.586Z,20.76
2023-05-21T03:20:40.791Z,20.72
2023-05-21T03:21:12.339Z,20.75
2023-05-21T03:21:43.918Z,20.75
2023-05-21T03:22:15.576Z,20.75
2023-05-21T03:22:47.189Z,20.75
2023-05-21T03:23:18.812Z,20.75
2023-05-21T03:23:50.359Z,20.76
2023-05-21T03:24:21.874Z,20.75
2023-05-21T03:24:53.593Z,20.77
2023-05-21T03:25:25.328Z,20.76
2023-05-21T03:25:57.090Z,20.75
2023-05-21T03:26:28.713Z,20.74
2023-05-21T03:27:00.407Z,20.74
2023-05-21T03:27:32.068Z,20.71
2023-05-21T03:28:03.737Z,20.70
2023-05-21T03:28:35.448Z,20.74
2023-05-21T03:29:07.108Z,20.73
2023-05-21T03:29:38.673Z,20.72
2023-05-21T03:30:10.559Z,20.74
2023-05-21T03:30:42.203Z,20.74
2023-05-21T03:31:13.736Z,20.70
2023-05-21T03:31:45.385Z,20.71
2023-05-21T03:32:17.108Z,20.70
2023-05-21T03:32:48.713Z,20.69
2023-05-21T03:33:20.377Z,20.70
2023-05-21T03:33:52.044Z,20.69
2023-05-21T03:34:23.633Z,20.70
2023-05-21T03:34:55.263Z,20.70
2023-05-21T03:35:26.919Z,20.70
2023-05-21T03:35:58.496Z,20.71
2023-05-21T03:36:30.153Z,20.71
2023-05-21T03:37:01.760Z,20.70
2023-05-21T03:37:33.370Z,20.69
2023-05-21T03:38:04.971Z,20.70
2023-05-21T03:38:37.200Z,20.70
2023-05-21T03:39:08.810Z,20.71
2023-05-21T03:39:40.413Z,20.70
2023-05-21T03:40:12.224Z,20.70
2023-05-21T03:40:43.934Z,20.71
2023-05-21T03:41:15.634Z,20.71
2023-05-21T03:41:47.206Z,20.71
2023-05-21T03:42:18.841Z,20.72
2023-05-21T03:42:50.488Z,20.70
2023-05-21T03:43:22.200Z,20.70
2023-05-21T03:43:53.834Z,20.67
2023-05-21T03:44:25.415Z,20.70
2023-05-21T03:44:57.010Z,20.67
2023-05-21T03:45:28.710Z,20.70
2023-05-21T03:46:00.408Z,20.71
2023-05-21T03:46:32.146Z,20.69
2023-05-21T03:47:04.026Z,20.70
2023-05-21T03:47:35.675Z,20.69
2023-05-21T03:48:07.448Z,20.68
2023-05-21T03:48:39.091Z,20.69
2023-05-21T03:49:11.174Z,20.69
2023-05-21T03:49:42.786Z,20.69
2023-05-21T03:50:14.364Z,20.69
2023-05-21T03:50:45.960Z,20.69
2023-05-21T03:51:17.598Z,20.68
2023-05-21T03:51:49.238Z,20.69
2023-05-21T03:52:20.918Z,20.69
2023-05-21T03:52:52.547Z,20.68
2023-05-21T03:53:24.443Z,20.69
2023-05-21T03:53:57.306Z,20.71
2023-05-21T03:54:28.938Z,20.68
2023-05-21T03:55:00.596Z,20.69
2023-05-21T03:55:32.251Z,20.69
2023-05-21T03:56:03.911Z,20.70
2023-05-21T03:56:35.552Z,20.68
2023-05-21T03:57:07.212Z,20.69
2023-05-21T03:57:38.803Z,20.71
2023-05-21T03:58:10.349Z,20.71
2023-05-21T03:58:41.963Z,20.69
2023-05-21T03:59:13.613Z,20.69
2023-05-21T03:59:45.173Z,20.70
2023-05-21T04:00:16.878Z,20.69
2023-05-21T04:00:48.499Z,20.69
2023-05-21T04:01:20.194Z,20.68
2023-05-21T04:01:51.823Z,20.69
2023-05-21T04:02:23.576Z,20.68
2023-05-21T04:02:55.303Z,20.67
2023-05-21T04:03:27.086Z,20.65
2023-05-21T04:03:58.982Z,20.66
2023-05-21T04:04:30.645Z,20.66
2023-05-21T04:05:02.367Z,20.67
2023-05-21T04:05:34.222Z,20.67
2023-05-21T04:06:05.985Z,20.67
2023-05-21T04:06:37.619Z,20.66
2023-05-21T04:07:09.245Z,20.66
2023-05-21T04:07:40.784Z,20.67
2023-05-21T04:08:12.374Z,20.67
2023-05-21T04:08:44.029Z,20.65
2023-05-21T04:09:15.630Z,20.67
2023-05-21T04:09:47.252Z,20.66
2023-05-21T04:10:18.882Z,20.65
2023-05-21T04:10:50.553Z,20.66
2023-05-21T04:11:22.240Z,20.66
2023-05-21T04:11:53.923Z,20.66
2023-05-21T04:12:25.568Z,20.66
2023-05-21T04:12:57.124Z,20.65
2023-05-21T04:13:28.685Z,20.66
2023-05-21T04:14:00.330Z,20.66
2023-05-21T04:14:31.876Z,20.69
2023-05-21T04:15:03.586Z,20.66
2023-05-21T04:15:35.344Z,20.67
2023-05-21T04:16:07.279Z,20.68
2023-05-21T04:16:38.980Z,20.65
2023-05-21T04:17:10.733Z,20.66
2023-05-21T04:17:42.560Z,20.64
2023-05-21T04:18:14.440Z,20.66
2023-05-21T04:18:46.522Z,20.65
2023-05-21T04:19:18.270Z,20.66
2023-05-21T04:19:50.108Z,20.66
2023-05-21T04:20:21.883Z,20.65
2023-05-21T04:20:53.612Z,20.65
2023-05-21T04:21:25.238Z,20.64
2023-05-21T04:21:56.887Z,20.64
2023-05-21T04:22:28.522Z,20.64
2023-05-21T04:23:00.267Z,20.63
2023-05-21T04:23:32.017Z,20.65
2023-05-21T04:24:03.681Z,20.64
2023-05-21T04:24:35.235Z,20.66
2023-05-21T04:25:06.928Z,20.64
2023-05-21T04:25:38.637Z,20.66
2023-05-21T04:26:10.212Z,20.65
2023-05-21T04:26:41.948Z,20.63
2023-05-21T04:27:13.565Z,20.64
2023-05-21T04:27:45.154Z,20.62
2023-05-21T04:28:16.720Z,20.63
2023-05-21T04:28:48.430Z,20.64
2023-05-21T04:29:20.118Z,20.63
2023-05-21T04:29:51.743Z,20.65
2023-05-21T04:30:23.394Z,20.63
2023-05-21T04:30:55.072Z,20.62
2023-05-21T04:31:26.704Z,20.61
2023-05-21T04:31:58.359Z,20.63
2023-05-21T04:32:30.457Z,20.63
2023-05-21T04:33:02.602Z,20.64
2023-05-21T04:33:34.432Z,20.65
2023-05-21T04:34:06.072Z,20.65
2023-05-21T04:34:37.722Z,20.65
2023-05-21T04:35:09.398Z,20.66
2023-05-21T04:35:41.168Z,20.65
2023-05-21T04:36:12.822Z,20.66
2023-05-21T04:36:47.512Z,20.64
2023-05-21T04:37:19.070Z,20.63
2023-05-21T04:37:50.703Z,20.64
2023-05-21T04:38:22.316Z,20.66
2023-05-21T04:38:53.898Z,20.65
2023-05-21T04:39:25.541Z,20.66
2023-05-21T04:39:59.783Z,20.65
2023-05-21T04:40:31.379Z,20.66
2023-05-21T04:41:03.009Z,20.65
2023-05-21T04:41:34.638Z,20.65
2023-05-21T04:42:06.222Z,20.65
2023-05-21T04:42:37.851Z,20.66
2023-05-21T04:43:09.400Z,20.67
2023-05-21T04:43:41.051Z,20.67
2023-05-21T04:44:12.640Z,20.67
2023-05-21T04:44:44.280Z,20.69
2023-05-21T04:45:15.920Z,20.69
2023-05-21T04:45:47.435Z,20.67
2023-05-21T04:46:19.208Z,20.68
2023-05-21T04:46:51.021Z,20.67
2023-05-21T04:47:22.700Z,20.67
2023-05-21T04:47:54.265Z,20.66
2023-05-21T04:48:25.889Z,20.67
2023-05-21T04:48:57.442Z,20.65
2023-05-21T04:49:29.012Z,20.66
2023-05-21T04:50:01.024Z,20.69
2023-05-21T04:50:32.587Z,20.67
2023-05-21T04:51:04.157Z,20.67
2023-05-21T04:51:35.867Z,20.65
2023-05-21T04:52:07.442Z,20.66
2023-05-21T04:52:39.295Z,20.66
2023-05-21T04:53:10.817Z,20.67
2023-05-21T04:53:42.481Z,20.67
2023-05-21T04:54:14.046Z,20.65
2023-05-21T04:54:45.676Z,20.66
2023-05-21T04:55:17.299Z,20.65
2023-05-21T04:55:48.934Z,20.67
2023-05-21T04:56:20.614Z,20.69
2023-05-21T04:56:52.308Z,20.69
2023-05-21T04:57:23.875Z,20.68
2023-05-21T04:57:55.505Z,20.66
2023-05-21T04:58:27.083Z,20.67
2023-05-21T04:58:58.835Z,20.67
2023-05-21T04:59:30.492Z,20.66
2023-05-21T05:00:02.136Z,20.70
2023-05-21T05:00:34.059Z,20.69
2023-05-21T05:01:05.763Z,20.68
2023-05-21T05:01:37.351Z,20.66
2023-05-21T05:02:08.955Z,20.67
2023-05-21T05:02:40.563Z,20.67
2023-05-21T05:03:12.731Z,20.65
2023-05-21T05:03:45.373Z,20.69
2023-05-21T05:04:17.085Z,20.69
2023-05-21T05:04:48.778Z,20.67
2023-05-21T05:05:20.417Z,20.68
2023-05-21T05:05:52.051Z,20.68
2023-05-21T05:06:23.636Z,20.66
2023-05-21T05:06:55.214Z,20.67
2023-05-21T05:07:26.884Z,20.67
2023-05-21T05:07:58.509Z,20.67
2023-05-21T05:08:30.274Z,20.67
2023-05-21T05:09:01.893Z,20.66
2023-05-21T05:09:33.495Z,20.66
2023-05-21T05:10:05.398Z,20.64
2023-05-21T05:10:36.950Z,20.64
2023-05-21T05:11:08.589Z,20.65
2023-05-21T05:11:40.261Z,20.65
2023-05-21T05:12:11.933Z,20.66
2023-05-21T05:12:43.537Z,20.66
2023-05-21T05:13:15.104Z,20.67
2023-05-21T05:13:46.758Z,20.67
2023-05-21T05:14:18.418Z,20.66
2023-05-21T05:14:50.045Z,20.66
2023-05-21T05:15:21.736Z,20.67
2023-05-21T05:15:54.580Z,20.67
2023-05-21T05:16:26.468Z,20.66
2023-05-21T05:16:58.461Z,20.67
2023-05-21T05:17:30.124Z,20.67
2023-05-21T05:18:01.757Z,20.66
2023-05-21T05:18:33.655Z,20.66
2023-05-21T05:19:05.311Z,20.67
2023-05-21T05:19:36.959Z,20.66
2023-05-21T05:20:08.882Z,20.67
2023-05-21T05:20:40.536Z,20.69
2023-05-21T05:21:12.286Z,20.71
2023-05-21T05:21:44.020Z,20.67
2023-05-21T05:22:15.626Z,20.67
2023-05-21T05:22:47.280Z,20.67
2023-05-21T05:23:19.126Z,20.67
2023-05-21T05:23:50.723Z,20.70
2023-05-21T05:24:22.352Z,20.70
2023-05-21T05:24:53.970Z,20.71
2023-05-21T05:25:25.630Z,20.68
2023-05-21T05:25:57.322Z,20.69
2023-05-21T05:26:28.940Z,20.68
2023-05-21T05:27:00.572Z,20.66
2023-05-21T05:27:32.194Z,20.69
2023-05-21T05:28:03.925Z,20.69
2023-05-21T05:28:35.618Z,20.70
2023-05-21T05:29:07.271Z,20.70
2023-05-21T05:29:38.910Z,20.70
2023-05-21T05:30:10.656Z,20.67
2023-05-21T05:30:42.251Z,20.69
2023-05-21T05:31:13.907Z,20.69
2023-05-21T05:31:45.811Z,20.70
2023-05-21T05:32:17.494Z,20.69
2023-05-21T05:32:49.422Z,20.69
2023-05-21T05:33:21.072Z,20.70
2023-05-21T05:33:52.649Z,20.71
2023-05-21T05:34:24.336Z,20.71
2023-05-21T05:34:55.930Z,20.71
2023-05-21T05:35:27.625Z,20.72
2023-05-21T05:35:59.251Z,20.71
2023-05-21T05:36:30.854Z,20.72
2023-05-21T05:37:02.532Z,20.71
2023-05-21T05:37:34.111Z,20.70
2023-05-21T05:38:05.723Z,20.70
2023-05-21T05:38:37.339Z,20.71
2023-05-21T05:39:08.967Z,20.71
2023-05-21T05:39:40.548Z,20.70
2023-05-21T05:40:12.164Z,20.70
2023-05-21T05:40:43.882Z,20.72
2023-05-21T05:41:15.527Z,20.71
2023-05-21T05:41:47.153Z,20.71
2023-05-21T05:42:18.731Z,20.73
2023-05-21T05:42:50.388Z,20.71
2023-05-21T05:43:22.131Z,20.72
2023-05-21T05:43:53.788Z,20.72
2023-05-21T05:44:25.426Z,20.69
2023-05-21T05:44:57.228Z,20.70
2023-05-21T05:45:28.833Z,20.70
2023-05-21T05:46:00.613Z,20.69
2023-05-21T05:46:32.354Z,20.70
2023-05-21T05:47:04.224Z,20.71
2023-05-21T05:47:35.844Z,20.70
2023-05-21T05:48:07.581Z,20.71
2023-05-21T05:48:39.246Z,20.70
2023-05-21T05:49:10.940Z,20.71
2023-05-21T05:49:42.548Z,20.71
2023-05-21T05:50:14.136Z,20.71
2023-05-21T05:50:45.774Z,20.70
2023-05-21T05:51:17.393Z,20.70
2023-05-21T05:51:49.201Z,20.70
2023-05-21T05:52:20.836Z,20.71
2023-05-21T05:52:52.585Z,20.74
2023-05-21T05:53:24.156Z,20.73
2023-05-21T05:53:55.871Z,20.73
2023-05-21T05:54:27.567Z,20.71
2023-05-21T05:54:59.169Z,20.71
2023-05-21T05:55:30.802Z,20.70
2023-05-21T05:56:02.399Z,20.72
2023-05-21T05:56:34.052Z,20.71
2023-05-21T05:57:05.841Z,20.70
2023-05-21T05:57:37.467Z,20.72
2023-05-21T05:58:09.112Z,20.71
2023-05-21T05:58:40.833Z,20.71
2023-05-21T05:59:12.709Z,20.73
2023-05-21T05:59:44.314Z,20.71
2023-05-21T06:00:16.067Z,20.72
2023-05-21T06:00:47.771Z,20.70
2023-05-21T06:01:19.323Z,20.73
2023-05-21T06:01:50.989Z,20.75
2023-05-21T06:02:22.653Z,20.73
2023-05-21T06:02:54.371Z,20.73
2023-05-21T06:03:26.518Z,20.74
2023-05-21T06:03:58.208Z,20.72
2023-05-21T06:04:29.900Z,20.73
2023-05-21T06:05:01.663Z,20.73
2023-05-21T06:05:33.331Z,20.76
2023-05-21T06:06:04.983Z,20.74
2023-05-21T06:06:36.578Z,20.74
2023-05-21T06:07:08.210Z,20.73
2023-05-21T06:07:39.795Z,20.74
2023-05-21T06:08:11.360Z,20.74
2023-05-21T06:08:43.100Z,20.73
2023-05-21T06:09:14.719Z,20.74
2023-05-21T06:09:46.341Z,20.74
2023-05-21T06:10:17.963Z,20.74
2023-05-21T06:10:49.589Z,20.73
2023-05-21T06:11:21.124Z,20.74
2023-05-21T06:11:52.737Z,20.73
2023-05-21T06:12:25.184Z,20.74
2023-05-21T06:12:56.865Z,20.77
2023-05-21T06:13:28.449Z,20.74
2023-05-21T06:13:59.998Z,20.75
2023-05-21T06:14:31.580Z,20.73
2023-05-21T06:15:03.155Z,20.75
2023-05-21T06:15:34.993Z,20.75
2023-05-21T06:16:06.986Z,20.74
2023-05-21T06:16:38.703Z,20.74
2023-05-21T06:17:10.405Z,20.73
2023-05-21T06:17:42.099Z,20.74
2023-05-21T06:18:13.725Z,20.74
2023-05-21T06:18:45.318Z,20.75
2023-05-21T06:19:17.051Z,20.75
2023-05-21T06:19:48.723Z,20.75
2023-05-21T06:20:20.317Z,20.75
2023-05-21T06:20:51.991Z,20.76
2023-05-21T06:21:23.590Z,20.76
2023-05-21T06:21:55.168Z,20.78
2023-05-21T06:22:26.763Z,20.78
2023-05-21T06:22:58.418Z,20.78
2023-05-21T06:23:30.094Z,20.77
2023-05-21T06:24:01.858Z,20.77
2023-05-21T06:24:33.490Z,20.78
2023-05-21T06:25:05.262Z,20.79
2023-05-21T06:25:37.004Z,20.77
2023-05-21T06:26:08.829Z,20.79
2023-05-21T06:26:40.420Z,20.78
2023-05-21T06:27:12.004Z,20.77
2023-05-21T06:27:43.665Z,20.76
2023-05-21T06:28:15.374Z,20.79
2023-05-21T06:28:46.936Z,20.77
2023-05-21T06:29:18.582Z,20.80
2023-05-21T06:29:50.402Z,20.78
2023-05-21T06:30:22.032Z,20.79
2023-05-21T06:30:53.681Z,20.80
2023-05-21T06:31:25.289Z,20.80
2023-05-21T06:31:56.894Z,20.79
2023-05-21T06:32:28.606Z,20.79
2023-05-21T06:33:00.378Z,20.79
2023-05-21T06:33:32.256Z,20.79
2023-05-21T06:34:04.245Z,20.80
2023-05-21T06:34:35.973Z,20.81
2023-05-21T06:35:07.811Z,20.82
2023-05-21T06:35:39.493Z,20.80
2023-05-21T06:36:11.127Z,20.79
2023-05-21T06:36:42.985Z,20.80
2023-05-21T06:37:14.592Z,20.79
2023-05-21T06:37:46.273Z,20.80
2023-05-21T06:38:17.992Z,20.82
2023-05-21T06:38:49.862Z,20.81
2023-05-21T06:39:21.566Z,20.81
2023-05-21T06:39:53.122Z,20.82
2023-05-21T06:40:24.791Z,20.81
2023-05-21T06:40:56.582Z,20.81
2023-05-21T06:41:28.206Z,20.82
2023-05-21T06:41:59.820Z,20.83
2023-05-21T06:42:31.391Z,20.81
2023-05-21T06:43:03.054Z,20.82
2023-05-21T06:43:34.735Z,20.81
2023-05-21T06:44:06.400Z,20.82
2023-05-21T06:44:38.103Z,20.83
2023-05-21T06:45:09.863Z,20.84
2023-05-21T06:45:41.791Z,20.83
2023-05-21T06:46:13.566Z,20.83
2023-05-21T06:46:45.218Z,20.83
2023-05-21T06:47:16.839Z,20.83
2023-05-21T06:47:48.575Z,20.83
2023-05-21T06:48:20.111Z,20.82
2023-05-21T06:48:51.732Z,20.83
2023-05-21T06:49:23.316Z,20.84
2023-05-21T06:49:54.958Z,20.84